Time;durP1;ratioP1;P1;durP2;ratioP2;P2;SDS_P1;SDS_P2;PMS_P1;PMS_P2;Temp;Humidity;BMP_temperature;BMP_pressure;BME280_temperature;BME280_humidity;BME280_pressure;Samples;Min_cycle;Max_cycle;Signal;HPM_P1;HPM_P2
2022/11/15 00:02:04;;;;;;;30.75;17.05;;;;;;;7.90;100.00;67647.13;4988920;28;20716;-81
2022/11/15 00:04:29;;;;;;;26.85;16.63;;;;;;;7.90;100.00;67647.13;4988413;28;20053;-80
2022/11/15 00:06:55;;;;;;;27.83;16.35;;;;;;;7.92;100.00;67656.78;4991495;28;20042;-81
2022/11/15 00:09:20;;;;;;;26.45;16.92;;;;;;;7.94;100.00;67659.06;4989685;28;20042;-81
2022/11/15 00:11:45;;;;;;;27.70;16.00;;;;;;;;;;4988993;28;20498;-81
2022/11/15 00:14:11;;;;;;;24.88;16.20;;;;;;;7.97;100.00;67659.78;4987817;28;20060;-81
2022/11/15 00:16:36;;;;;;;28.25;18.52;;;;;;;8.00;100.00;67662.59;4985581;28;20443;-81
2022/11/15 00:19:02;;;;;;;27.05;15.63;;;;;;;8.02;100.00;67665.44;4988356;28;20586;-81
2022/11/15 00:21:27;;;;;;;27.83;18.52;;;;;;;8.05;100.00;67660.31;4986337;28;20050;-82
2022/11/15 00:23:52;;;;;;;26.05;17.17;;;;;;;8.07;100.00;67670.53;4989541;28;20050;-81
2022/11/15 00:26:18;;;;;;;32.28;18.30;;;;;;;8.09;100.00;67667.50;4988066;28;20457;-82
2022/11/15 00:28:43;;;;;;;27.90;18.40;;;;;;;;;;4989215;28;20242;-82
2022/11/15 00:31:11;;;;;;;32.78;18.27;;;;;;;;;;4990592;28;20452;-81
2022/11/15 00:33:37;;;;;;;29.63;19.48;;;;;;;;;;4990078;28;20076;-82
2022/11/15 00:36:11;;;;;;;28.42;18.35;;;;;;;8.10;100.00;67673.94;4988969;28;20124;-82
2022/11/15 00:38:38;;;;;;;28.85;17.58;;;;;;;8.12;100.00;67676.22;4993892;28;20061;-82
2022/11/15 00:41:05;;;;;;;26.83;17.90;;;;;;;8.12;100.00;67676.22;4988626;28;20061;-81
2022/11/15 00:43:31;;;;;;;26.38;18.70;;;;;;;8.13;100.00;67680.00;4988276;28;20406;-81
2022/11/15 00:45:56;;;;;;;30.50;17.45;;;;;;;8.13;100.00;67682.63;4986672;28;20046;-81
2022/11/15 00:48:22;;;;;;;30.75;19.00;;;;;;;8.16;100.00;67680.72;4989232;28;20042;-80
2022/11/15 00:50:48;;;;;;;27.58;16.38;;;;;;;;;;4987891;28;20049;-81
2022/11/15 00:53:13;;;;;;;26.23;17.27;;;;;;;;;;4987202;28;20042;-81
2022/11/15 00:55:38;;;;;;;30.17;20.33;;;;;;;8.23;100.00;67688.69;4988508;28;20526;-81
2022/11/15 00:58:04;;;;;;;26.40;17.00;;;;;;;;;;4987358;28;20446;-80
2022/11/15 01:00:29;;;;;;;29.75;18.30;;;;;;;;;;4988241;28;20208;-82
2022/11/15 01:02:54;;;;;;;27.25;17.23;;;;;;;8.26;100.00;67691.50;4988387;28;20129;-81
2022/11/15 01:05:20;;;;;;;27.35;18.00;;;;;;;;;;4987239;28;20058;-81
2022/11/15 01:07:45;;;;;;;29.58;19.88;;;;;;;;;;4998954;28;20057;-81
2022/11/15 01:10:10;;;;;;;31.60;19.33;;;;;;;8.26;100.00;67691.50;4987707;28;20049;-81
2022/11/15 01:12:36;;;;;;;24.52;16.73;;;;;;;8.27;100.00;67692.63;4989383;28;20042;-81
2022/11/15 01:15:01;;;;;;;27.00;18.58;;;;;;;8.28;100.00;67694.31;4987964;28;20150;-81
2022/11/15 01:17:27;;;;;;;23.98;15.18;;;;;;;;;;4976202;28;20045;-81
2022/11/15 01:19:52;;;;;;;24.85;16.83;;;;;;;;;;4987854;28;20125;-81
2022/11/15 01:22:17;;;;;;;23.23;16.52;;;;;;;;;;4989224;28;20397;-81
2022/11/15 01:24:43;;;;;;;25.75;17.15;;;;;;;8.39;100.00;67700.38;4989338;28;20049;-81
2022/11/15 01:27:08;;;;;;;23.85;16.92;;;;;;;;;;4989847;28;20141;-81
2022/11/15 01:29:33;;;;;;;24.55;16.30;;;;;;;;;;4990669;28;20066;-80
2022/11/15 01:31:59;;;;;;;22.90;16.55;;;;;;;8.47;100.00;67714.75;4989898;28;20117;-81
2022/11/15 01:34:24;;;;;;;25.33;17.77;;;;;;;8.51;100.00;67719.25;4991262;28;20740;-81
2022/11/15 01:36:49;;;;;;;26.20;16.45;;;;;;;;;;4993353;28;20034;-81
2022/11/15 01:39:15;;;;;;;27.83;16.63;;;;;;;8.53;100.00;67716.78;4990159;28;20050;-81
2022/11/15 01:41:41;;;;;;;25.77;18.67;;;;;;;8.59;100.00;67723.03;4989809;28;20141;-81
2022/11/15 01:44:30;;;;;;;26.73;16.58;;;;;;;8.67;100.00;67736.84;4990253;28;20053;-81
2022/11/15 01:46:57;;;;;;;25.95;14.45;;;;;;;;;;4989754;28;20046;-81
2022/11/15 01:49:24;;;;;;;26.17;17.52;;;;;;;8.80;100.00;67746.84;4989937;28;20073;-81
2022/11/15 01:51:49;;;;;;;28.65;17.40;;;;;;;;;;4990125;28;20130;-81
2022/11/15 01:54:18;;;;;;;28.70;17.65;;;;;;;;;;4988193;28;20134;-81
2022/11/15 01:57:10;;;;;;;26.98;19.60;;;;;;;8.91;100.00;67758.16;4989470;28;20690;-81
2022/11/15 01:59:37;;;;;;;27.75;19.17;;;;;;;8.92;100.00;67764.59;4986776;28;20128;-81
2022/11/15 02:02:03;;;;;;;27.17;18.77;;;;;;;;;;4993072;28;20113;-81
2022/11/15 02:04:32;;;;;;;29.10;17.88;;;;;;;8.96;100.00;67772.34;4994650;28;20042;-81
2022/11/15 02:06:58;;;;;;;28.77;16.58;;;;;;;;;;4996125;28;20039;-82
2022/11/15 02:09:23;;;;;;;28.85;18.75;;;;;;;;;;4994808;28;20103;-81
2022/11/15 02:11:50;;;;;;;27.30;17.77;;;;;;;9.07;100.00;67781.03;4990599;28;20587;-81
2022/11/15 02:14:19;;;;;;;28.27;18.90;;;;;;;9.08;100.00;67777.41;4993280;28;20042;-81
2022/11/15 02:17:13;;;;;;;32.63;20.80;;;;;;;9.09;100.00;67778.56;4993481;28;20026;-82
2022/11/15 02:20:00;;;;;;;28.27;20.38;;;;;;;9.11;100.00;67780.81;4973241;28;20038;-82
2022/11/15 02:23:04;;;;;;;28.45;17.52;;;;;;;9.11;100.00;67780.81;4991395;28;20046;-81
2022/11/15 02:26:14;;;;;;;27.70;18.58;;;;;;;9.12;100.00;67787.28;4992703;28;20108;-82
2022/11/15 02:28:59;;;;;;;26.95;16.77;;;;;;;;;;4963557;28;20051;-82
2022/11/15 02:31:52;;;;;;;27.13;16.83;;;;;;;9.15;100.00;67784.78;4991207;28;20042;-81
2022/11/15 02:34:31;;;;;;;30.27;19.73;;;;;;;9.17;100.00;67787.59;4994944;28;20048;-82
2022/11/15 02:37:06;;;;;;;28.55;19.30;;;;;;;9.18;100.00;67788.75;4999362;28;20048;-81
2022/11/15 02:39:47;;;;;;;26.88;17.15;;;;;;;9.23;100.00;67799.16;4996289;28;20153;-81
2022/11/15 02:45:18;;;;;;;26.08;16.77;;;;;;;9.25;100.00;67794.03;4998613;28;20061;-81
2022/11/15 02:47:48;;;;;;;26.40;19.23;;;;;;;9.31;100.00;67807.66;4995485;28;20101;-82
2022/11/15 02:50:18;;;;;;;25.88;17.10;;;;;;;9.32;100.00;67804.06;4991549;28;20034;-82
2022/11/15 02:52:48;;;;;;;27.17;16.90;;;;;;;;;;4991697;28;20035;-82
2022/11/15 02:55:38;;;;;;;24.05;16.73;;;;;;;9.41;100.00;67813.69;4992224;28;20052;-82
2022/11/15 02:58:18;;;;;;;26.77;17.88;;;;;;;;;;4990365;28;20053;-81
2022/11/15 03:00:51;;;;;;;21.90;15.35;;;;;;;;;;4988972;28;20647;-82
2022/11/15 03:03:16;;;;;;;23.40;16.00;;;;;;;;;;4983726;28;20069;-81
2022/11/15 03:06:00;;;;;;;23.80;16.53;;;;;;;9.61;100.00;67835.78;4989779;28;20249;-82
2022/11/15 03:08:48;;;;;;;24.40;15.75;;;;;;;9.68;100.00;67849.63;4995608;28;20292;-81
2022/11/15 03:11:17;;;;;;;19.88;14.63;;;;;;;9.74;100.00;67847.31;4991001;28;20469;-81
2022/11/15 03:14:08;;;;;;;21.27;14.23;;;;;;;9.80;100.00;67862.66;4992538;28;20034;-81
2022/11/15 03:16:44;;;;;;;22.73;14.57;;;;;;;9.82;100.00;67859.03;4974769;28;20048;-81
2022/11/15 03:19:19;;;;;;;21.65;14.98;;;;;;;9.87;100.00;67864.72;4994076;28;20045;-82
2022/11/15 03:21:47;;;;;;;20.30;14.32;;;;;;;9.90;100.00;67874.00;4990711;28;20486;-80
2022/11/15 03:24:16;;;;;;;18.95;13.15;;;;;;;9.93;100.00;67872.09;4989550;28;20044;-82
2022/11/15 03:26:43;;;;;;;21.65;11.90;;;;;;;;;;4988938;28;20034;-80
2022/11/15 03:29:16;;;;;;;19.40;13.02;;;;;;;10.00;100.00;67884.78;4989015;28;20048;-80
2022/11/15 03:31:48;;;;;;;20.48;13.98;;;;;;;10.01;100.00;67885.34;4991395;28;20057;-80
2022/11/15 03:34:20;;;;;;;19.73;13.52;;;;;;;10.06;100.00;67885.69;4989676;28;20549;-80
2022/11/15 03:36:47;;;;;;;17.52;12.05;;;;;;;10.09;100.00;67894.41;4994301;28;20049;-81
2022/11/15 03:39:13;;;;;;;19.02;13.48;;;;;;;10.13;100.00;67899.53;4991078;28;20039;-81
2022/11/15 03:41:53;;;;;;;20.63;14.70;;;;;;;10.12;100.00;67898.38;4989984;28;20048;-80
2022/11/15 03:44:34;;;;;;;17.42;13.25;;;;;;;10.13;100.00;67899.53;5007028;28;20108;-81
2022/11/15 03:47:06;;;;;;;18.42;12.65;;;;;;;;;;4989656;28;20065;-80
2022/11/15 03:49:38;;;;;;;16.25;11.75;;;;;;;10.16;100.00;67902.38;4990849;28;20042;-80
2022/11/15 03:52:05;;;;;;;20.25;13.27;;;;;;;10.19;100.00;67900.44;4990140;28;20040;-80
2022/11/15 03:54:30;;;;;;;17.23;13.23;;;;;;;;;;4991632;28;20408;-80
2022/11/15 03:56:56;;;;;;;19.27;12.65;;;;;;;10.24;100.00;67905.53;4990452;28;20117;-80
2022/11/15 03:59:21;;;;;;;21.77;14.40;;;;;;;;;;4989985;28;20045;-80
2022/11/15 04:01:46;;;;;;;18.92;13.57;;;;;;;;;;4989478;28;20100;-80
2022/11/15 04:04:12;;;;;;;21.08;13.13;;;;;;;;;;4989573;28;20099;-81
2022/11/15 04:06:37;;;;;;;19.23;13.10;;;;;;;10.30;100.00;67917.69;4992686;28;20054;-80
2022/11/15 04:09:02;;;;;;;20.67;13.77;;;;;;;;;;4987872;28;20070;-81
2022/11/15 04:11:27;;;;;;;19.20;12.73;;;;;;;;;;4989525;28;20116;-81
2022/11/15 04:13:53;;;;;;;19.08;12.98;;;;;;;10.33;100.00;67913.13;4989700;28;20038;-81
2022/11/15 04:16:18;;;;;;;19.65;13.85;;;;;;;10.33;100.00;67915.78;4986133;28;20050;-81
2022/11/15 04:18:44;;;;;;;18.40;13.65;;;;;;;10.35;100.00;67918.59;4988439;28;20050;-80
2022/11/15 04:26:20;;;;;;;17.98;12.40;;;;;;;;;;4987898;28;20098;-80
2022/11/15 04:31:29;;;;;;;16.73;13.20;;;;;;;;;;4987352;28;20523;-80
2022/11/15 04:33:55;;;;;;;21.73;13.50;;;;;;;10.48;100.00;67932.22;4990807;28;20042;-80
2022/11/15 04:39:05;;;;;;;19.83;13.07;;;;;;;10.52;100.00;67937.31;4988816;28;20056;-80
2022/11/15 04:41:30;;;;;;;18.50;12.85;;;;;;;10.52;100.00;67942.09;4989350;28;20129;-80
2022/11/15 04:43:56;;;;;;;18.77;13.70;;;;;;;10.54;100.00;67939.59;4988987;28;20405;-80
2022/11/15 04:46:23;;;;;;;18.58;13.75;;;;;;;10.56;100.00;67939.22;4983388;28;20124;-81
2022/11/15 04:48:48;;;;;;;18.27;12.68;;;;;;;;;;4987849;28;20046;-81
2022/11/15 04:51:13;;;;;;;18.63;14.18;;;;;;;10.62;100.00;67953.44;4979227;28;20061;-80
2022/11/15 04:53:39;;;;;;;21.02;13.15;;;;;;;10.63;100.00;67949.25;4984591;28;20049;-80
2022/11/15 04:56:04;;;;;;;19.38;13.25;;;;;;;10.63;100.00;67949.25;4983143;28;20042;-81
2022/11/15 04:58:30;;;;;;;20.52;13.95;;;;;;;;;;4988653;28;20046;-80
2022/11/15 05:00:55;;;;;;;21.25;13.52;;;;;;;;;;4978014;28;20455;-80
2022/11/15 05:06:05;;;;;;;22.27;14.13;;;;;;;10.63;100.00;67949.25;4986620;28;20650;-79
2022/11/15 05:08:31;;;;;;;24.55;14.43;;;;;;;10.61;100.00;67946.97;4986053;28;20513;-80
2022/11/15 05:10:56;;;;;;;23.25;15.75;;;;;;;;;;4988771;28;20042;-81
2022/11/15 05:13:21;;;;;;;21.42;15.57;;;;;;;10.59;100.00;67945.28;4987541;28;20050;-81
2022/11/15 05:15:47;;;;;;;24.10;16.00;;;;;;;10.57;100.00;67942.44;4981242;28;20654;-81
2022/11/15 05:18:12;;;;;;;21.48;15.02;;;;;;;10.57;100.00;67943.00;4985340;28;20092;-81
2022/11/15 05:20:37;;;;;;;23.90;15.68;;;;;;;;;;4980002;28;20602;-80
2022/11/15 05:23:03;;;;;;;25.20;16.00;;;;;;;10.56;100.00;67941.31;4989697;28;20048;-81
2022/11/15 05:25:29;;;;;;;25.20;16.67;;;;;;;10.54;100.00;67939.59;4987185;28;20045;-82
2022/11/15 05:27:54;;;;;;;23.70;17.83;;;;;;;10.51;100.00;67936.19;4991519;28;20045;-82
2022/11/15 05:30:20;;;;;;;23.23;17.15;;;;;;;10.51;100.00;67936.19;4990033;28;20030;-81
2022/11/15 05:32:45;;;;;;;30.10;17.38;;;;;;;10.50;100.00;67939.81;4983382;28;20073;-82
2022/11/15 05:35:17;;;;;;;24.05;17.80;;;;;;;;;;4988639;28;20554;-82
2022/11/15 05:37:42;;;;;;;29.75;17.77;;;;;;;10.52;100.00;67942.66;5001629;28;20046;-81
2022/11/15 05:40:08;;;;;;;26.52;18.10;;;;;;;;;;4990603;28;20058;-82
2022/11/15 05:42:33;;;;;;;29.80;18.77;;;;;;;10.53;100.00;67943.81;4991538;28;20300;-82
2022/11/15 05:45:01;;;;;;;29.55;20.08;;;;;;;10.50;100.00;67940.41;4990191;28;20453;-81
2022/11/15 05:47:29;;;;;;;29.40;19.73;;;;;;;10.50;100.00;67940.41;4989745;28;20046;-81
2022/11/15 05:49:55;;;;;;;29.23;19.05;;;;;;;;;;4977431;28;20045;-82
2022/11/15 05:52:25;;;;;;;34.72;20.00;;;;;;;10.49;100.00;67939.25;4990172;28;20074;-82
2022/11/15 05:54:51;;;;;;;34.03;22.38;;;;;;;10.47;100.00;67931.66;4988700;28;20049;-81
2022/11/15 05:57:17;;;;;;;33.85;23.40;;;;;;;;;;4989618;28;20042;-83
2022/11/15 05:59:43;;;;;;;30.00;20.23;;;;;;;10.49;100.00;67933.94;4992046;28;20050;-82
2022/11/15 06:02:10;;;;;;;35.10;22.95;;;;;;;10.49;100.00;67933.94;4975668;28;20065;-82
2022/11/15 06:04:35;;;;;;;34.00;23.15;;;;;;;10.49;100.00;67933.94;4989947;28;20039;-81
2022/11/15 06:07:01;;;;;;;33.13;23.15;;;;;;;10.51;100.00;67936.19;4992298;28;20282;-81
2022/11/15 06:09:26;;;;;;;32.65;22.17;;;;;;;10.49;100.00;67938.69;4987790;28;20046;-82
2022/11/15 06:11:51;;;;;;;36.05;22.75;;;;;;;;;;4989918;28;20737;-81
2022/11/15 06:14:16;;;;;;;37.20;24.60;;;;;;;10.47;100.00;67931.09;4982860;28;20438;-82
2022/11/15 06:16:42;;;;;;;37.15;24.90;;;;;;;10.46;100.00;67935.28;4987048;28;20050;-81
2022/11/15 06:19:07;;;;;;;34.80;22.98;;;;;;;;;;4989940;28;20058;-82
2022/11/15 06:21:32;;;;;;;40.13;24.45;;;;;;;;;;4989628;28;20490;-82
2022/11/15 06:23:58;;;;;;;39.45;26.77;;;;;;;10.45;100.00;67926.16;4989861;28;20047;-82
2022/11/15 06:26:23;;;;;;;43.15;24.98;;;;;;;;;;4990859;28;20046;-82
2022/11/15 06:28:48;;;;;;;42.60;25.00;;;;;;;;;;4992077;28;20045;-84
2022/11/15 06:31:14;;;;;;;44.92;24.92;;;;;;;10.47;100.00;67931.09;4982972;28;20405;-81
2022/11/15 06:33:40;;;;;;;41.92;25.90;;;;;;;10.48;100.00;67938.13;4989819;28;20046;-82
2022/11/15 06:36:08;;;;;;;43.45;27.67;;;;;;;10.49;100.00;67933.38;4988371;28;20054;-85
2022/11/15 06:38:33;;;;;;;45.28;28.55;;;;;;;;;;4998044;28;20080;-82
2022/11/15 06:41:04;;;;;;;44.40;26.65;;;;;;;10.49;100.00;67933.94;4987690;28;20125;-82
2022/11/15 06:43:29;;;;;;;40.47;24.00;;;;;;;10.53;100.00;67943.81;4989625;28;20406;-81
2022/11/15 06:45:54;;;;;;;40.70;26.02;;;;;;;10.53;100.00;67943.81;5006918;28;20050;-81
2022/11/15 06:48:20;;;;;;;41.20;26.48;;;;;;;;;;4993907;28;20050;-81
2022/11/15 06:50:53;;;;;;;39.85;25.23;;;;;;;10.54;100.00;67939.59;4993451;28;20046;-82
2022/11/15 06:53:18;;;;;;;40.10;26.73;;;;;;;10.55;100.00;67940.16;4988840;28;20410;-83
2022/11/15 06:55:43;;;;;;;40.35;24.98;;;;;;;;;;4993996;28;20118;-81
2022/11/15 06:58:09;;;;;;;40.50;22.67;;;;;;;10.55;100.00;67940.16;4993191;28;20044;-82
2022/11/15 07:00:34;;;;;;;36.92;23.90;;;;;;;10.54;100.00;67944.94;4994463;28;20053;-82
2022/11/15 07:03:00;;;;;;;39.88;25.92;;;;;;;10.57;100.00;67943.00;4995645;28;20070;-83
2022/11/15 07:05:26;;;;;;;39.40;26.63;;;;;;;;;;4994051;28;20038;-83
2022/11/15 07:07:52;;;;;;;41.05;23.30;;;;;;;;;;4996544;28;20051;-83
2022/11/15 07:10:17;;;;;;;39.88;22.30;;;;;;;10.60;100.00;67945.84;4993648;28;20038;-83
2022/11/15 07:12:47;;;;;;;40.75;25.50;;;;;;;10.59;100.00;67942.06;4994953;28;20049;-83
2022/11/15 07:15:12;;;;;;;37.45;25.73;;;;;;;10.63;100.00;67954.00;4994066;28;20042;-82
2022/11/15 07:17:37;;;;;;;37.95;27.40;;;;;;;10.61;100.00;67947.53;4994998;28;20650;-83
2022/11/15 07:20:03;;;;;;;41.50;27.33;;;;;;;10.61;100.00;67947.53;4993705;28;20564;-83
2022/11/15 07:22:28;;;;;;;40.63;26.65;;;;;;;10.63;100.00;67949.25;4996396;28;20061;-82
2022/11/15 07:24:54;;;;;;;38.28;23.63;;;;;;;;;;4995461;28;20101;-81
2022/11/15 07:27:19;;;;;;;37.97;25.23;;;;;;;10.64;100.00;67947.16;4995229;28;20042;-82
2022/11/15 07:29:44;;;;;;;41.47;25.17;;;;;;;10.63;100.00;67948.69;4994826;28;20038;-81
2022/11/15 07:32:10;;;;;;;45.22;24.38;;;;;;;10.64;100.00;67949.81;4994834;28;20498;-82
2022/11/15 07:34:35;;;;;;;41.88;26.20;;;;;;;10.63;100.00;67954.56;4990540;28;20046;-81
2022/11/15 07:37:00;;;;;;;46.08;27.52;;;;;;;;;;5000398;28;20398;-82
2022/11/15 07:39:26;;;;;;;43.90;26.43;;;;;;;10.67;100.00;67953.22;4994599;28;20046;-84
2022/11/15 07:42:52;;;;;;;40.50;26.45;;;;;;;10.65;100.00;67951.53;4994875;28;20373;-84
2022/11/15 07:44:36;;;;;;;39.78;23.88;;;;;;;;;;4993084;28;20062;-84
2022/11/15 07:47:02;;;;;;;39.10;23.33;;;;;;;10.65;100.00;67951.53;4992968;28;20499;-84
2022/11/15 07:49:27;;;;;;;34.08;20.88;;;;;;;;;;4991323;28;20038;-83
2022/11/15 07:51:52;;;;;;;33.08;21.65;;;;;;;10.66;100.00;67952.09;4994910;28;20054;-84
2022/11/15 07:54:17;;;;;;;34.95;21.38;;;;;;;;;;4995709;28;20048;-83
2022/11/15 07:56:43;;;;;;;29.67;20.70;;;;;;;10.69;100.00;67955.50;4994258;28;20138;-84
2022/11/15 07:59:08;;;;;;;29.45;19.77;;;;;;;10.71;100.00;67957.78;4996007;28;20489;-83
2022/11/15 08:01:33;;;;;;;31.83;19.60;;;;;;;10.69;100.00;67961.38;4995646;28;20042;-81
2022/11/15 08:03:59;;;;;;;28.65;19.00;;;;;;;10.69;100.00;67955.50;4998256;28;20061;-82
2022/11/15 08:06:24;;;;;;;30.13;20.15;;;;;;;10.74;100.00;67961.16;5015081;28;20080;-81
2022/11/15 08:08:49;;;;;;;29.55;19.55;;;;;;;10.73;100.00;67960.59;5019571;28;20743;-82
2022/11/15 08:11:15;;;;;;;28.38;18.40;;;;;;;;;;5000279;28;20052;-82
2022/11/15 08:13:40;;;;;;;27.52;17.50;;;;;;;;;;5001082;28;20053;-82
2022/11/15 08:16:05;;;;;;;28.75;19.00;;;;;;;10.79;100.00;67967.41;5001312;28;20042;-82
2022/11/15 08:18:31;;;;;;;28.25;18.02;;;;;;;;;;5000915;28;20046;-81
2022/11/15 08:21:01;;;;;;;28.27;18.88;;;;;;;10.82;100.00;67976.13;4990952;28;20042;-81
2022/11/15 08:23:26;;;;;;;25.70;17.92;;;;;;;;;;4989882;28;20054;-81
2022/11/15 08:25:51;;;;;;;26.00;16.42;;;;;;;10.88;100.00;67977.06;4989735;28;20076;-82
2022/11/15 08:28:17;;;;;;;27.70;17.40;;;;;;;10.92;100.00;67981.59;4990427;28;20046;-82
2022/11/15 08:30:45;;;;;;;29.42;16.23;;;;;;;10.96;100.00;67983.47;4991990;28;20057;-81
2022/11/15 08:33:13;;;;;;;26.85;18.35;;;;;;;11.01;100.00;67991.25;5001930;28;20039;-81
2022/11/15 08:35:39;;;;;;;24.25;16.17;;;;;;;11.01;100.00;67991.81;4991131;28;20046;-81
2022/11/15 08:38:05;;;;;;;21.08;16.17;;;;;;;11.03;100.00;67991.41;5022205;28;20176;-82
2022/11/15 08:40:30;;;;;;;21.17;13.60;;;;;;;11.05;100.00;67995.78;5011632;28;20058;-84
2022/11/15 08:42:55;;;;;;;21.80;14.15;;;;;;;11.06;100.00;67997.47;5018555;28;20030;-84
2022/11/15 08:45:21;;;;;;;21.73;15.02;;;;;;;11.09;100.00;68000.31;4989971;28;21732;-83
2022/11/15 08:47:46;;;;;;;18.08;11.80;;;;;;;11.12;100.00;68003.72;4991151;28;20038;-81
2022/11/15 08:50:12;;;;;;;16.83;12.38;;;;;;;11.13;100.00;68010.19;4988212;28;20042;-84
2022/11/15 08:52:37;;;;;;;17.13;11.43;;;;;;;11.18;100.00;68009.97;4990461;28;20042;-84
2022/11/15 08:55:02;;;;;;;17.90;12.32;;;;;;;;;;4990654;28;20125;-84
2022/11/15 08:57:30;;;;;;;14.43;10.52;;;;;;;11.21;100.00;68010.72;4990250;28;20704;-82
2022/11/15 08:59:55;;;;;;;15.27;11.38;;;;;;;11.23;100.00;68015.66;4993186;28;20076;-81
2022/11/15 09:02:21;;;;;;;14.43;10.82;;;;;;;11.22;100.00;68014.50;5004108;28;20418;-81
2022/11/15 09:04:46;;;;;;;12.65;9.90;;;;;;;11.25;100.00;68017.94;5009913;28;20037;-81
2022/11/15 09:07:13;;;;;;;14.18;9.75;;;;;;;11.28;100.00;68026.66;4996024;28;20038;-81
2022/11/15 09:09:38;;;;;;;12.35;9.55;;;;;;;;;;4989738;28;20050;-81
2022/11/15 09:12:05;;;;;;;14.32;11.40;;;;;;;11.26;100.00;68019.06;4989930;28;20049;-81
2022/11/15 09:14:31;;;;;;;12.52;9.95;;;;;;;11.27;100.00;68020.19;4990221;28;20673;-82
2022/11/15 09:16:56;;;;;;;11.48;9.00;;;;;;;;;;4995295;28;20039;-81
2022/11/15 09:19:21;;;;;;;12.52;9.52;;;;;;;11.25;100.00;68023.25;4987553;28;20056;-82
2022/11/15 09:21:47;;;;;;;10.77;7.80;;;;;;;11.23;100.00;68013.00;4982174;28;20049;-81
2022/11/15 09:24:12;;;;;;;12.85;8.07;;;;;;;11.22;100.00;68015.09;4987578;28;20154;-81
2022/11/15 09:26:38;;;;;;;12.85;9.02;;;;;;;11.21;100.00;68013.94;4987470;28;20046;-81
2022/11/15 09:29:03;;;;;;;12.40;8.00;;;;;;;11.22;100.00;68014.50;4988776;28;20470;-82
2022/11/15 09:31:29;;;;;;;8.90;7.30;;;;;;;11.22;100.00;68011.84;4989762;28;20100;-82
2022/11/15 09:33:55;;;;;;;9.27;7.57;;;;;;;11.23;100.00;68013.56;4989222;28;20096;-80
2022/11/15 09:36:20;;;;;;;9.57;7.05;;;;;;;11.23;100.00;68015.66;4988010;28;20456;-81
2022/11/15 09:38:45;;;;;;;9.25;5.88;;;;;;;11.20;100.00;68012.81;4989433;28;20526;-82
2022/11/15 09:41:10;;;;;;;9.10;6.55;;;;;;;;;;4988353;28;20053;-81
2022/11/15 09:43:58;;;;;;;6.87;5.67;;;;;;;11.22;100.00;68014.50;4989924;28;20046;-82
2022/11/15 09:47:05;;;;;;;9.57;5.97;;;;;;;11.22;100.00;68011.84;5003054;28;20286;-80
2022/11/15 09:49:31;;;;;;;8.85;5.65;;;;;;;;;;4985454;28;20038;-82
2022/11/15 09:51:57;;;;;;;7.25;5.10;;;;;;;11.20;100.00;68012.25;4989544;28;20046;-81
2022/11/15 09:54:28;;;;;;;7.00;4.25;;;;;;;;;;4987160;28;20070;-81
2022/11/15 09:56:55;;;;;;;9.35;4.68;;;;;;;;;;4988652;28;20525;-82
2022/11/15 09:59:49;;;;;;;10.18;5.90;;;;;;;11.23;100.00;68013.00;4987764;28;20516;-82
2022/11/15 10:02:14;;;;;;;7.82;4.70;;;;;;;;;;4973160;28;20057;-81
2022/11/15 10:04:40;;;;;;;8.13;4.80;;;;;;;11.30;100.00;68023.59;4981928;28;20461;-81
2022/11/15 10:07:30;;;;;;;7.15;4.00;;;;;;;11.33;100.00;68024.34;4997418;28;20699;-81
2022/11/15 10:10:01;;;;;;;5.85;4.20;;;;;;;11.29;100.00;68022.47;4998635;28;20043;-81
2022/11/15 10:12:28;;;;;;;8.43;4.28;;;;;;;11.29;100.00;68022.47;4988189;28;20046;-80
2022/11/15 10:15:16;;;;;;;8.43;3.92;;;;;;;11.33;100.00;68023.78;4988568;28;20048;-81
2022/11/15 10:18:03;;;;;;;5.63;3.53;;;;;;;11.40;100.00;68034.97;4987732;28;20069;-81
2022/11/15 10:20:30;;;;;;;6.03;3.53;;;;;;;;;;4990019;28;20125;-81
2022/11/15 10:22:59;;;;;;;6.40;3.80;;;;;;;11.44;100.00;68039.50;4992887;28;20069;-84
2022/11/15 10:25:27;;;;;;;5.03;2.78;;;;;;;11.51;100.00;68052.78;4990717;28;20141;-82
2022/11/15 10:27:58;;;;;;;5.38;2.60;;;;;;;11.61;100.00;68057.66;4993995;28;20054;-81
2022/11/15 10:30:28;;;;;;;5.10;2.40;;;;;;;;;;4991115;28;20042;-82
2022/11/15 10:32:53;;;;;;;6.05;3.05;;;;;;;11.81;100.00;68080.38;4993565;28;20546;-83
2022/11/15 10:35:29;;;;;;;5.13;2.83;;;;;;;;;;4992344;28;20971;-82
2022/11/15 10:38:09;;;;;;;4.70;2.67;;;;;;;11.91;100.00;68088.53;5013483;28;20042;-82
2022/11/15 10:40:36;;;;;;;4.13;2.28;;;;;;;11.91;100.00;68097.09;5017342;28;20109;-81
2022/11/15 10:43:13;;;;;;;7.90;2.63;;;;;;;11.90;100.00;68090.06;4998269;28;20498;-82
2022/11/15 10:45:38;;;;;;;5.15;2.30;;;;;;;11.99;100.00;68099.72;4995361;28;20193;-83
2022/11/15 10:48:13;;;;;;;5.85;2.30;;;;;;;12.05;100.00;68112.44;4997111;28;20070;-83
2022/11/15 10:50:41;;;;;;;4.65;2.13;;;;;;;12.11;100.00;68113.34;4990661;28;20068;-84
2022/11/15 10:53:33;;;;;;;6.70;2.38;;;;;;;12.12;100.00;68114.50;4999209;28;20042;-82
2022/11/15 10:56:03;;;;;;;3.83;1.92;;;;;;;12.11;100.00;68113.94;4988713;28;20043;-83
2022/11/15 10:58:41;;;;;;;5.35;2.38;;;;;;;12.15;100.00;68117.91;4995565;28;20185;-83
2022/11/15 11:01:18;;;;;;;4.07;2.25;;;;;;;12.21;100.00;68124.72;4995525;28;20045;-83
2022/11/15 11:04:01;;;;;;;3.58;1.60;;;;;;;12.21;100.00;68124.72;4986352;28;20050;-82
2022/11/15 11:06:27;;;;;;;5.90;1.70;;;;;;;12.29;100.00;68131.13;5000082;28;20053;-83
2022/11/15 11:09:01;;;;;;;4.03;1.70;;;;;;;12.29;99.63;68133.25;5017110;28;20054;-83
2022/11/15 11:11:48;;;;;;;4.75;1.83;;;;;;;12.35;100.00;68140.63;5013458;28;20050;-83
2022/11/15 11:14:21;;;;;;;4.65;1.90;;;;;;;12.39;99.45;68144.59;4991753;28;20045;-82
2022/11/15 11:17:12;;;;;;;3.30;1.98;;;;;;;12.28;98.84;68132.66;4995998;28;20121;-83
2022/11/15 11:20:03;;;;;;;5.35;1.98;;;;;;;12.26;100.00;68130.41;4986033;28;20046;-82
2022/11/15 11:22:46;;;;;;;4.88;2.00;;;;;;;;;;4993772;28;20053;-83
2022/11/15 11:25:36;;;;;;;4.65;2.75;;;;;;;12.35;99.92;68137.94;4993622;28;20039;-82
2022/11/15 11:28:20;;;;;;;5.35;2.40;;;;;;;;;;4994937;28;20061;-83
2022/11/15 11:30:55;;;;;;;5.40;3.15;;;;;;;12.47;100.00;68153.69;4958661;28;20417;-83
2022/11/15 11:33:27;;;;;;;5.15;3.55;;;;;;;12.54;100.00;68161.63;4992858;28;20046;-84
2022/11/15 11:36:03;;;;;;;7.50;3.70;;;;;;;;;;4992796;28;20074;-83
2022/11/15 11:38:32;;;;;;;6.93;4.85;;;;;;;;;;4989517;28;20097;-83
2022/11/15 11:41:37;;;;;;;7.88;5.63;;;;;;;12.67;98.73;68175.28;4992360;28;20115;-83
2022/11/15 11:44:27;;;;;;;11.00;5.53;;;;;;;12.65;97.99;68173.56;4992231;28;20042;-83
2022/11/15 11:47:00;;;;;;;8.98;6.13;;;;;;;12.79;98.99;68189.50;4986898;28;20061;-82
2022/11/15 11:49:45;;;;;;;9.40;6.07;;;;;;;12.94;98.44;68202.72;4988451;28;20546;-82
2022/11/15 11:52:37;;;;;;;12.65;6.90;;;;;;;;;;4989760;28;20085;-83
2022/11/15 11:55:15;;;;;;;9.10;6.28;;;;;;;13.03;96.05;68210.88;4982001;28;20037;-82
2022/11/15 11:57:56;;;;;;;8.50;5.43;;;;;;;13.12;96.53;68225.88;4984723;28;20045;-83
2022/11/15 12:00:25;;;;;;;8.10;5.70;;;;;;;13.22;96.15;68234.00;4990464;28;20048;-82
2022/11/15 12:03:12;;;;;;;;;;;;;;;13.26;95.18;68241.81;4989118;28;20041;-83
2022/11/15 12:05:43;;;;;;;8.35;4.68;;;;;;;;;;4967876;28;19917;-82
2022/11/15 12:08:25;;;;;;;7.75;4.00;;;;;;;13.19;95.57;68231.16;4993115;28;20494;-82
2022/11/15 12:10:58;;;;;;;5.22;3.50;;;;;;;13.30;95.50;68245.81;4989966;28;20379;-83
2022/11/15 12:13:26;;;;;;;8.15;4.25;;;;;;;13.41;93.83;68255.06;4990180;28;20134;-82
2022/11/15 12:16:05;;;;;;;5.90;3.60;;;;;;;13.41;91.87;68257.75;4990839;28;20407;-83
2022/11/15 12:18:31;;;;;;;6.93;4.18;;;;;;;13.46;92.43;68263.41;4986634;28;20050;-83
2022/11/15 12:21:03;;;;;;;6.95;4.88;;;;;;;;;;4988287;28;20239;-82
2022/11/15 12:23:34;;;;;;;5.68;4.15;;;;;;;13.61;92.95;68280.50;4989250;28;20445;-82
2022/11/15 12:26:40;;;;;;;5.80;3.88;;;;;;;13.76;90.91;68297.56;4989876;28;20053;-82
2022/11/15 12:29:22;;;;;;;4.88;3.13;;;;;;;13.79;87.80;68300.41;4985658;28;20884;-82
2022/11/15 12:31:51;;;;;;;4.40;2.67;;;;;;;13.86;86.71;68307.78;4989153;28;20042;-82